createdAt,value
2019-03-24T00:00:30.455Z,0.00
2019-03-24T00:01:40.677Z,0.00
2019-03-24T00:02:30.502Z,0.00
2019-03-24T00:03:30.528Z,0.00
2019-03-24T00:04:30.558Z,0.00
2019-03-24T00:05:30.580Z,0.00
2019-03-24T00:06:30.609Z,0.00
2019-03-24T00:07:30.634Z,0.00
2019-03-24T00:08:30.654Z,0.00
2019-03-24T00:09:30.682Z,0.00
2019-03-24T00:10:30.707Z,0.00
2019-03-24T00:11:30.736Z,0.00
2019-03-24T00:12:30.760Z,0.00
2019-03-24T00:13:30.789Z,0.00
2019-03-24T00:14:30.813Z,0.00
2019-03-24T00:15:30.836Z,0.00
2019-03-24T00:16:30.858Z,0.00
2019-03-24T00:17:30.886Z,0.00
2019-03-24T00:18:30.910Z,0.00
2019-03-24T00:19:30.937Z,0.00
2019-03-24T00:20:30.962Z,0.00
2019-03-24T00:21:30.988Z,0.00
2019-03-24T00:22:31.013Z,0.00
2019-03-24T00:23:31.037Z,0.00
2019-03-24T00:24:31.063Z,0.00
2019-03-24T00:25:31.098Z,0.00
2019-03-24T00:26:31.116Z,0.00
2019-03-24T00:27:31.143Z,0.00
2019-03-24T00:28:31.163Z,0.00
2019-03-24T00:29:31.192Z,0.00
2019-03-24T00:30:31.217Z,0.00
2019-03-24T00:31:31.242Z,0.00
2019-03-24T00:32:31.267Z,0.00
2019-03-24T00:33:31.291Z,0.00
2019-03-24T00:34:31.316Z,0.00
2019-03-24T00:35:31.341Z,0.00
2019-03-24T00:36:31.367Z,0.00
2019-03-24T00:37:31.394Z,0.00
2019-03-24T00:38:31.419Z,0.00
2019-03-24T00:39:31.444Z,0.00
2019-03-24T00:40:31.478Z,0.00
2019-03-24T00:41:31.494Z,0.00
2019-03-24T00:42:31.518Z,0.00
2019-03-24T00:43:31.546Z,0.00
2019-03-24T00:44:31.568Z,0.00
2019-03-24T00:45:36.806Z,0.00
2019-03-24T00:46:31.621Z,0.00
2019-03-24T00:47:31.649Z,0.00
2019-03-24T00:48:31.673Z,0.00
2019-03-24T00:49:31.695Z,0.00
2019-03-24T00:50:31.722Z,0.00
2019-03-24T00:51:31.748Z,0.00
2019-03-24T00:52:31.777Z,0.00
2019-03-24T00:53:31.798Z,0.00
2019-03-24T00:54:31.823Z,0.00
2019-03-24T00:55:31.849Z,0.00
2019-03-24T00:56:31.875Z,0.00
2019-03-24T00:57:31.900Z,0.00
2019-03-24T00:58:31.926Z,0.00
2019-03-24T00:59:31.950Z,0.00
2019-03-24T01:00:31.977Z,0.00
2019-03-24T01:01:32.003Z,0.00
2019-03-24T01:02:32.026Z,0.00
2019-03-24T01:03:32.053Z,0.00
2019-03-24T01:04:32.077Z,0.00
2019-03-24T01:05:32.104Z,0.00
2019-03-24T01:06:32.130Z,0.00
2019-03-24T01:07:32.154Z,0.00
2019-03-24T01:08:32.182Z,0.00
2019-03-24T01:09:32.205Z,0.00
2019-03-24T01:10:32.229Z,0.00
2019-03-24T01:11:32.256Z,0.00
2019-03-24T01:12:32.283Z,0.00
2019-03-24T01:13:32.309Z,0.00
2019-03-24T01:14:32.335Z,0.00
2019-03-24T01:15:32.358Z,0.00
2019-03-24T01:16:32.382Z,0.00
2019-03-24T01:17:32.407Z,0.00
2019-03-24T01:18:32.435Z,0.00
2019-03-24T01:19:32.460Z,0.00
2019-03-24T01:20:32.483Z,0.00
2019-03-24T01:21:32.510Z,0.00
2019-03-24T01:22:32.536Z,0.00
2019-03-24T01:23:32.565Z,0.00
2019-03-24T01:24:32.586Z,0.00
2019-03-24T01:25:32.612Z,0.00
2019-03-24T01:26:32.641Z,0.00
2019-03-24T01:27:32.663Z,0.00
2019-03-24T01:28:32.691Z,0.00
2019-03-24T01:29:32.716Z,0.00
2019-03-24T01:30:32.738Z,0.00
2019-03-24T01:31:32.764Z,0.00
2019-03-24T01:32:32.790Z,0.00
2019-03-24T01:33:32.818Z,0.00
2019-03-24T01:34:32.842Z,0.00
2019-03-24T01:35:32.871Z,0.00
2019-03-24T01:36:32.892Z,0.00
2019-03-24T01:37:32.918Z,0.00
2019-03-24T01:38:32.943Z,0.00
2019-03-24T01:39:32.969Z,0.00
2019-03-24T01:40:32.996Z,0.00
2019-03-24T01:41:33.022Z,0.00
2019-03-24T01:42:33.045Z,0.00
2019-03-24T01:43:33.071Z,0.00
2019-03-24T01:44:33.095Z,0.00
2019-03-24T01:45:33.122Z,0.00
2019-03-24T01:46:33.152Z,0.00
2019-03-24T01:47:33.178Z,0.00
2019-03-24T01:48:33.197Z,0.00
2019-03-24T01:49:33.223Z,0.00
2019-03-24T01:50:33.250Z,0.00
2019-03-24T01:51:33.275Z,0.00
2019-03-24T01:52:33.299Z,0.00
2019-03-24T01:53:33.325Z,0.00
2019-03-24T01:54:33.352Z,0.00
2019-03-24T01:55:33.376Z,0.00
2019-03-24T01:56:33.405Z,0.00
2019-03-24T01:57:33.433Z,0.00
2019-03-24T01:58:33.454Z,0.00
2019-03-24T01:59:33.482Z,0.00
2019-03-24T02:00:33.506Z,0.00
2019-03-24T02:01:33.533Z,0.00
2019-03-24T02:02:33.561Z,0.00
2019-03-24T02:03:33.582Z,0.00
2019-03-24T02:04:33.608Z,0.00
2019-03-24T02:05:33.631Z,0.00
2019-03-24T02:06:33.663Z,0.00
2019-03-24T02:07:33.684Z,0.00
2019-03-24T02:08:33.712Z,0.00
2019-03-24T02:09:33.736Z,0.00
2019-03-24T02:10:33.759Z,0.00
2019-03-24T02:11:33.785Z,0.00
2019-03-24T02:12:33.810Z,0.00
2019-03-24T02:13:33.835Z,0.00
2019-03-24T02:14:33.861Z,0.00
2019-03-24T02:15:33.890Z,0.00
2019-03-24T02:16:33.911Z,0.00
2019-03-24T02:17:33.943Z,0.00
2019-03-24T02:18:33.963Z,0.00
2019-03-24T02:19:33.992Z,0.00
2019-03-24T02:20:34.016Z,0.00
2019-03-24T02:21:34.039Z,0.00
2019-03-24T02:22:34.065Z,0.00
2019-03-24T02:23:34.093Z,0.00
2019-03-24T02:24:34.115Z,0.00
2019-03-24T02:25:34.147Z,0.00
2019-03-24T02:26:34.165Z,0.00
2019-03-24T02:27:34.191Z,0.00
2019-03-24T02:28:34.216Z,0.00
2019-03-24T02:29:34.246Z,0.00
2019-03-24T02:30:34.271Z,0.00
2019-03-24T02:31:34.294Z,0.00
2019-03-24T02:32:34.318Z,0.00
2019-03-24T02:33:34.353Z,0.00
2019-03-24T02:34:34.370Z,0.00
2019-03-24T02:35:34.403Z,0.00
2019-03-24T02:36:34.422Z,0.00
2019-03-24T02:37:34.445Z,0.00
2019-03-24T02:38:34.480Z,0.00
2019-03-24T02:39:34.502Z,0.00
2019-03-24T02:40:34.524Z,0.00
2019-03-24T02:41:34.551Z,0.00
2019-03-24T02:42:34.576Z,0.00
2019-03-24T02:43:34.598Z,0.00
2019-03-24T02:44:34.625Z,0.00
2019-03-24T02:45:34.649Z,0.00
2019-03-24T02:46:34.675Z,0.00
2019-03-24T02:47:34.720Z,0.00
2019-03-24T02:48:34.723Z,0.00
2019-03-24T02:49:34.751Z,0.00
2019-03-24T02:50:34.775Z,0.00
2019-03-24T02:51:34.803Z,0.00
2019-03-24T02:52:34.825Z,0.00
2019-03-24T02:53:34.858Z,0.00
2019-03-24T02:54:34.878Z,0.00
2019-03-24T02:55:34.901Z,0.00
2019-03-24T02:56:34.935Z,0.00
2019-03-24T02:57:34.962Z,0.00
2019-03-24T02:58:34.992Z,0.00
2019-03-24T02:59:35.004Z,0.00
2019-03-24T03:00:35.028Z,0.00
2019-03-24T03:01:35.055Z,0.00
2019-03-24T03:02:35.079Z,0.00
2019-03-24T03:03:35.107Z,0.00
2019-03-24T03:04:35.132Z,0.00
2019-03-24T03:05:35.159Z,0.00
2019-03-24T03:06:35.186Z,0.00
2019-03-24T03:07:35.209Z,0.00
2019-03-24T03:08:35.240Z,0.00
2019-03-24T03:09:35.256Z,0.00
2019-03-24T03:10:35.283Z,0.00
2019-03-24T03:11:35.306Z,0.00
2019-03-24T03:12:35.340Z,0.00
2019-03-24T03:13:35.356Z,0.00
2019-03-24T03:14:35.406Z,0.00
2019-03-24T03:15:35.410Z,0.00
2019-03-24T03:16:38.619Z,0.00
2019-03-24T03:17:35.457Z,0.00
2019-03-24T03:18:35.489Z,0.00
2019-03-24T03:19:35.511Z,0.00
2019-03-24T03:20:35.538Z,0.00
2019-03-24T03:21:35.560Z,0.00
2019-03-24T03:22:35.591Z,0.00
2019-03-24T03:23:35.612Z,0.00
2019-03-24T03:24:35.654Z,0.00
2019-03-24T03:25:35.667Z,0.00
2019-03-24T03:26:35.687Z,0.00
2019-03-24T03:27:35.723Z,0.00
2019-03-24T03:28:35.736Z,0.00
2019-03-24T03:29:35.764Z,0.00
2019-03-24T03:30:35.790Z,0.00
2019-03-24T03:31:35.817Z,0.00
2019-03-24T03:32:35.838Z,0.00
2019-03-24T03:33:35.875Z,0.00
2019-03-24T03:34:35.893Z,0.00
2019-03-24T03:35:35.919Z,0.00
2019-03-24T03:36:35.942Z,0.00
2019-03-24T03:37:35.968Z,0.00
2019-03-24T03:38:35.992Z,0.00
2019-03-24T03:39:36.021Z,0.00
2019-03-24T03:40:36.042Z,4.00
2019-03-24T03:41:36.067Z,4.00
2019-03-24T03:42:36.096Z,0.00
2019-03-24T03:43:36.121Z,4.00
2019-03-24T03:44:36.143Z,4.00
2019-03-24T03:45:39.129Z,4.00
2019-03-24T03:46:36.201Z,4.00
2019-03-24T03:47:36.221Z,8.00
2019-03-24T03:48:36.246Z,8.00
2019-03-24T03:49:36.273Z,8.00
2019-03-24T03:50:36.306Z,8.00
2019-03-24T03:51:36.324Z,12.00
2019-03-24T03:52:36.346Z,12.00
2019-03-24T03:53:36.378Z,12.00
2019-03-24T03:54:36.399Z,16.00
2019-03-24T03:55:36.424Z,20.00
2019-03-24T03:56:36.448Z,20.00
2019-03-24T03:57:36.491Z,24.00
2019-03-24T03:58:36.502Z,28.00
2019-03-24T03:59:36.528Z,32.00
2019-03-24T04:00:36.554Z,36.00
2019-03-24T04:01:36.576Z,44.00
2019-03-24T04:02:36.607Z,52.00
2019-03-24T04:03:36.642Z,56.00
2019-03-24T04:04:36.651Z,68.00
2019-03-24T04:05:36.734Z,80.00
2019-03-24T04:06:36.706Z,88.00
2019-03-24T04:07:36.731Z,104.00
2019-03-24T04:08:36.755Z,116.00
2019-03-24T04:09:36.781Z,132.00
2019-03-24T04:10:36.806Z,148.00
2019-03-24T04:11:36.844Z,168.00
2019-03-24T04:12:36.856Z,188.00
2019-03-24T04:13:36.882Z,208.00
2019-03-24T04:14:36.907Z,228.00
2019-03-24T04:15:36.933Z,256.00
2019-03-24T04:16:36.961Z,284.00
2019-03-24T04:17:36.987Z,316.00
2019-03-24T04:18:37.011Z,344.00
2019-03-24T04:19:37.039Z,376.00
2019-03-24T04:20:37.068Z,412.00
2019-03-24T04:21:37.085Z,444.00
2019-03-24T04:22:37.115Z,488.00
2019-03-24T04:23:37.137Z,528.00
2019-03-24T04:24:37.162Z,568.00
2019-03-24T04:25:37.188Z,612.00
2019-03-24T04:26:37.212Z,660.00
2019-03-24T04:27:37.237Z,708.00
2019-03-24T04:28:37.265Z,756.00
2019-03-24T04:29:37.294Z,808.00
2019-03-24T04:30:37.315Z,864.00
2019-03-24T04:31:37.340Z,916.00
2019-03-24T04:32:37.369Z,972.00
2019-03-24T04:33:37.392Z,1028.00
2019-03-24T04:34:37.419Z,1084.00
2019-03-24T04:35:37.450Z,1144.00
2019-03-24T04:36:37.470Z,1208.00
2019-03-24T04:37:37.496Z,1268.00
2019-03-24T04:38:37.522Z,1332.00
2019-03-24T04:39:37.548Z,1396.00
2019-03-24T04:40:37.583Z,1460.00
2019-03-24T04:41:37.595Z,1528.00
2019-03-24T04:42:37.630Z,1612.00
2019-03-24T04:43:37.650Z,1704.00
2019-03-24T04:44:37.675Z,1804.00
2019-03-24T04:45:37.704Z,1968.00
2019-03-24T04:46:37.724Z,2140.00
2019-03-24T04:47:37.754Z,2248.00
2019-03-24T04:48:37.778Z,2352.00
2019-03-24T04:49:37.803Z,2464.00
2019-03-24T04:50:37.828Z,2556.00
2019-03-24T04:51:37.853Z,2668.00
2019-03-24T04:52:37.878Z,2772.00
2019-03-24T04:53:37.906Z,2864.00
2019-03-24T04:54:37.933Z,2952.00
2019-03-24T04:55:37.959Z,3060.00
2019-03-24T04:56:37.985Z,3164.00
2019-03-24T04:57:38.011Z,3272.00
2019-03-24T04:58:38.037Z,3388.00
2019-03-24T04:59:38.064Z,3496.00
2019-03-24T05:00:38.090Z,3600.00
2019-03-24T05:01:38.116Z,3696.00
2019-03-24T05:02:38.150Z,3788.00
2019-03-24T05:03:38.171Z,3880.00
2019-03-24T05:04:38.203Z,4008.00
2019-03-24T05:05:38.225Z,4136.00
2019-03-24T05:06:38.252Z,4236.00
2019-03-24T05:07:38.281Z,4316.00
2019-03-24T05:08:38.308Z,4412.00
2019-03-24T05:09:38.342Z,4560.00
2019-03-24T05:10:38.362Z,4684.00
2019-03-24T05:11:38.392Z,4828.00
2019-03-24T05:12:38.418Z,4964.00
2019-03-24T05:13:38.445Z,5104.00
2019-03-24T05:14:38.471Z,5216.00
2019-03-24T05:15:38.503Z,5308.00
2019-03-24T05:16:38.530Z,5488.00
2019-03-24T05:17:38.556Z,5648.00
2019-03-24T05:18:38.587Z,5776.00
2019-03-24T05:19:38.616Z,5904.00
2019-03-24T05:20:38.638Z,6136.00
2019-03-24T05:21:38.666Z,6308.00
2019-03-24T05:22:38.696Z,6480.00
2019-03-24T05:23:38.724Z,6692.00
2019-03-24T05:24:38.754Z,6804.00
2019-03-24T05:25:38.783Z,6924.00
2019-03-24T05:26:38.808Z,7052.00
2019-03-24T05:27:38.840Z,7228.00
2019-03-24T05:28:38.866Z,7372.00
2019-03-24T05:29:38.895Z,7556.00
2019-03-24T05:30:38.922Z,7716.00
2019-03-24T05:31:38.957Z,7960.00
2019-03-24T05:32:38.978Z,8276.00
2019-03-24T05:33:39.007Z,8404.00
2019-03-24T05:34:39.042Z,8576.00
2019-03-24T05:35:39.068Z,8776.00
2019-03-24T05:36:39.098Z,8952.00
2019-03-24T05:37:39.126Z,9216.00
2019-03-24T05:38:39.157Z,9260.00
2019-03-24T05:39:39.183Z,9372.00
2019-03-24T05:40:39.221Z,9608.00
2019-03-24T05:41:39.243Z,9908.00
2019-03-24T05:42:39.272Z,10108.00
2019-03-24T05:43:39.302Z,10200.00
2019-03-24T05:44:39.332Z,10568.00
2019-03-24T05:45:39.362Z,10876.00
2019-03-24T05:46:39.390Z,10744.00
2019-03-24T05:47:39.424Z,11188.00
2019-03-24T05:48:39.453Z,11676.00
2019-03-24T05:49:39.479Z,12012.00
2019-03-24T05:50:39.515Z,12244.00
2019-03-24T05:51:39.544Z,12416.00
2019-03-24T05:52:39.574Z,12512.00
2019-03-24T05:53:39.604Z,12700.00
2019-03-24T05:54:39.632Z,12672.00
2019-03-24T05:55:39.665Z,12852.00
2019-03-24T05:56:39.694Z,13152.00
2019-03-24T05:57:39.725Z,13500.00
2019-03-24T05:58:39.754Z,13728.00
2019-03-24T05:59:39.785Z,13984.00
2019-03-24T06:00:39.814Z,14048.00
2019-03-24T06:01:39.849Z,14560.00
2019-03-24T06:02:39.877Z,15328.00
2019-03-24T06:03:39.907Z,14784.00
2019-03-24T06:04:39.938Z,14592.00
2019-03-24T06:05:39.973Z,15808.00
2019-03-24T06:06:40.004Z,16256.00
2019-03-24T06:07:40.032Z,16960.00
2019-03-24T06:08:40.062Z,17312.00
2019-03-24T06:09:40.095Z,17568.00
2019-03-24T06:10:40.125Z,17408.00
2019-03-24T06:11:40.157Z,17344.00
2019-03-24T06:12:40.188Z,17760.00
2019-03-24T06:13:40.221Z,17536.00
2019-03-24T06:14:40.250Z,17536.00
2019-03-24T06:15:40.284Z,18368.00
2019-03-24T06:16:40.315Z,18944.00
2019-03-24T06:17:47.824Z,19296.00
2019-03-24T06:18:40.377Z,19744.00
2019-03-24T06:19:40.410Z,20064.00
2019-03-24T06:20:40.444Z,20512.00
2019-03-24T06:21:40.473Z,21056.00
2019-03-24T06:22:40.508Z,21248.00
2019-03-24T06:23:40.539Z,21344.00
2019-03-24T06:24:40.570Z,21152.00
2019-03-24T06:25:40.602Z,22016.00
2019-03-24T06:26:40.640Z,22432.00
2019-03-24T06:27:40.668Z,22720.00
2019-03-24T06:28:40.707Z,23392.00
2019-03-24T06:29:40.732Z,22816.00
2019-03-24T06:30:40.769Z,23520.00
2019-03-24T06:31:40.798Z,23776.00
2019-03-24T06:32:40.830Z,24640.00
2019-03-24T06:33:40.865Z,24256.00
2019-03-24T06:34:40.896Z,23296.00
2019-03-24T06:35:40.930Z,23584.00
2019-03-24T06:36:40.965Z,23520.00
2019-03-24T06:37:40.996Z,23776.00
2019-03-24T06:38:41.027Z,24448.00
2019-03-24T06:39:41.061Z,24448.00
2019-03-24T06:40:41.095Z,24288.00
2019-03-24T06:41:41.130Z,23392.00
2019-03-24T06:42:41.163Z,23360.00
2019-03-24T06:43:41.195Z,23456.00
2019-03-24T06:44:41.228Z,23936.00
2019-03-24T06:45:41.262Z,24928.00
2019-03-24T06:46:41.296Z,22816.00
2019-03-24T06:47:41.330Z,19104.00
2019-03-24T06:48:41.362Z,17472.00
2019-03-24T06:49:41.396Z,17824.00
2019-03-24T06:50:41.436Z,17824.00
2019-03-24T06:51:41.465Z,17056.00
2019-03-24T06:52:41.500Z,16320.00
2019-03-24T06:53:41.532Z,16032.00
2019-03-24T06:54:41.568Z,16096.00
2019-03-24T06:55:41.603Z,15868.00
2019-03-24T06:56:41.635Z,15968.00
2019-03-24T06:57:41.670Z,16704.00
2019-03-24T06:58:41.703Z,16832.00
2019-03-24T06:59:41.741Z,17088.00
2019-03-24T07:00:41.772Z,17568.00
2019-03-24T07:01:41.809Z,17760.00
2019-03-24T07:02:41.847Z,19488.00
2019-03-24T07:03:41.876Z,19424.00
2019-03-24T07:04:41.910Z,19488.00
2019-03-24T07:05:41.946Z,21184.00
2019-03-24T07:06:41.982Z,22016.00
2019-03-24T07:07:42.015Z,21120.00
2019-03-24T07:08:42.050Z,20096.00
2019-03-24T07:09:42.085Z,20832.00
2019-03-24T07:10:42.122Z,20992.00
2019-03-24T07:11:42.161Z,20096.00
2019-03-24T07:12:42.190Z,19968.00
2019-03-24T07:13:42.226Z,19968.00
2019-03-24T07:14:42.264Z,19712.00
2019-03-24T07:15:42.297Z,19648.00
2019-03-24T07:16:42.341Z,19424.00
2019-03-24T07:17:42.369Z,19104.00
2019-03-24T07:18:42.402Z,19296.00
2019-03-24T07:19:42.440Z,19360.00
2019-03-24T07:20:42.513Z,19360.00
2019-03-24T07:21:42.509Z,19840.00
2019-03-24T07:22:42.544Z,20128.00
2019-03-24T07:23:42.583Z,19552.00
2019-03-24T07:24:42.615Z,19232.00
2019-03-24T07:25:42.652Z,20000.00
2019-03-24T07:26:42.687Z,20512.00
2019-03-24T07:27:42.724Z,20032.00
2019-03-24T07:28:42.758Z,19712.00
2019-03-24T07:29:42.794Z,20352.00
2019-03-24T07:30:42.835Z,20992.00
2019-03-24T07:31:42.871Z,19040.00
2019-03-24T07:32:42.902Z,20768.00
2019-03-24T07:33:42.940Z,20736.00
2019-03-24T07:34:42.975Z,20576.00
2019-03-24T07:35:43.014Z,20320.00
2019-03-24T07:36:43.051Z,20512.00
2019-03-24T07:37:43.087Z,20928.00
2019-03-24T07:38:43.124Z,21504.00
2019-03-24T07:39:43.157Z,22112.00
2019-03-24T07:40:43.193Z,22112.00
2019-03-24T07:41:43.235Z,22464.00
2019-03-24T07:42:43.269Z,23680.00
2019-03-24T07:43:43.306Z,23680.00
2019-03-24T07:44:43.345Z,23104.00
2019-03-24T07:45:43.379Z,24160.00
2019-03-24T07:46:43.416Z,25056.00
2019-03-24T07:47:43.452Z,25472.00
2019-03-24T07:48:43.489Z,25216.00
2019-03-24T07:49:43.526Z,26080.00
2019-03-24T07:50:43.569Z,28768.00
2019-03-24T07:51:43.601Z,29184.00
2019-03-24T07:52:43.640Z,29632.00
2019-03-24T07:53:43.680Z,30112.00
2019-03-24T07:54:43.713Z,33664.00
2019-03-24T07:55:43.752Z,37728.00
2019-03-24T07:56:43.787Z,39008.00
2019-03-24T07:57:43.828Z,39648.00
2019-03-24T07:58:45.866Z,40256.00
2019-03-24T07:59:43.904Z,35904.00
2019-03-24T08:00:43.945Z,32512.00
2019-03-24T08:01:43.974Z,31168.00
2019-03-24T08:02:51.088Z,29344.00
2019-03-24T08:03:44.052Z,28960.00
2019-03-24T08:04:44.088Z,30528.00
2019-03-24T08:05:44.130Z,33440.00
2019-03-24T08:06:44.164Z,33888.00
2019-03-24T08:07:44.202Z,33152.00
2019-03-24T08:08:44.634Z,32416.00
2019-03-24T08:09:44.279Z,32480.00
2019-03-24T08:10:44.316Z,32352.00
2019-03-24T08:11:44.359Z,31520.00
2019-03-24T08:12:44.426Z,32544.00
2019-03-24T08:13:53.261Z,38048.00
2019-03-24T08:14:44.470Z,36256.00
2019-03-24T08:15:44.508Z,31424.00
2019-03-24T08:16:44.549Z,30880.00
2019-03-24T08:17:44.585Z,30368.00
2019-03-24T08:18:44.622Z,28128.00
2019-03-24T08:19:44.660Z,26176.00
2019-03-24T08:20:44.702Z,24608.00
2019-03-24T08:21:44.739Z,23968.00
2019-03-24T08:22:44.776Z,23296.00
2019-03-24T08:23:44.817Z,23424.00
2019-03-24T08:24:44.853Z,23360.00
2019-03-24T08:25:44.890Z,23264.00
2019-03-24T08:26:44.932Z,24192.00
2019-03-24T08:27:44.969Z,25280.00
2019-03-24T08:28:45.028Z,26048.00
2019-03-24T08:29:45.048Z,27392.00
2019-03-24T08:30:45.086Z,28960.00
2019-03-24T08:31:45.124Z,30304.00
2019-03-24T08:32:45.163Z,30528.00
2019-03-24T08:33:45.202Z,36832.00
2019-03-24T08:34:45.246Z,46560.00
2019-03-24T08:35:45.290Z,46560.00
2019-03-24T08:36:45.320Z,46144.00
2019-03-24T08:37:45.362Z,42080.00
2019-03-24T08:38:45.397Z,41472.00
2019-03-24T08:39:45.436Z,40832.00
2019-03-24T08:40:45.474Z,40096.00
2019-03-24T08:41:45.515Z,40352.00
2019-03-24T08:42:45.557Z,37920.00
2019-03-24T08:43:45.592Z,34464.00
2019-03-24T08:44:45.633Z,33248.00
2019-03-24T08:45:45.673Z,34560.00
2019-03-24T08:46:47.169Z,34720.00
2019-03-24T08:47:45.749Z,35584.00
2019-03-24T08:48:45.788Z,37376.00
2019-03-24T08:49:45.833Z,40160.00
2019-03-24T08:50:45.868Z,44640.00
2019-03-24T08:51:45.906Z,50176.00
2019-03-24T08:52:45.945Z,55296.00
2019-03-24T08:53:45.984Z,56704.00
2019-03-24T08:54:46.023Z,55488.00
2019-03-24T08:55:46.065Z,56192.00
2019-03-24T08:56:46.103Z,57056.00
2019-03-24T08:57:46.138Z,56640.00
2019-03-24T08:58:46.180Z,55104.00
2019-03-24T08:59:46.270Z,57600.00
2019-03-24T09:00:46.259Z,57888.00
2019-03-24T09:01:46.298Z,58624.00
2019-03-24T09:02:46.335Z,59680.00
2019-03-24T09:03:46.374Z,59680.00
2019-03-24T09:04:46.411Z,59616.00
2019-03-24T09:05:46.452Z,60768.00
2019-03-24T09:06:46.494Z,59232.00
2019-03-24T09:07:46.534Z,59296.00
2019-03-24T09:08:48.878Z,58848.00
2019-03-24T09:09:46.609Z,58880.00
2019-03-24T09:10:46.651Z,58688.00
2019-03-24T09:11:46.688Z,63008.00
2019-03-24T09:12:46.726Z,65184.00
2019-03-24T09:13:46.769Z,61792.00
2019-03-24T09:14:46.806Z,58208.00
2019-03-24T09:15:46.845Z,55520.00
2019-03-24T09:16:46.884Z,52160.00
2019-03-24T09:17:46.976Z,47136.00
2019-03-24T09:18:52.505Z,43552.00
2019-03-24T09:19:47.003Z,41120.00
2019-03-24T09:20:47.045Z,38912.00
2019-03-24T09:21:47.084Z,37728.00
2019-03-24T09:22:47.125Z,37120.00
2019-03-24T09:23:47.170Z,36736.00
2019-03-24T09:24:47.203Z,36832.00
2019-03-24T09:25:47.244Z,37312.00
2019-03-24T09:26:47.282Z,37856.00
2019-03-24T09:27:47.325Z,38144.00
2019-03-24T09:28:47.366Z,37888.00
2019-03-24T09:29:47.407Z,38016.00
2019-03-24T09:30:47.445Z,37344.00
2019-03-24T09:31:47.489Z,34976.00
2019-03-24T09:32:47.528Z,33600.00
2019-03-24T09:33:47.566Z,33920.00
2019-03-24T09:34:47.614Z,34464.00
2019-03-24T09:35:47.646Z,33504.00
2019-03-24T09:36:47.685Z,32416.00
2019-03-24T09:37:47.726Z,31872.00
2019-03-24T09:38:47.768Z,30336.00
2019-03-24T09:39:47.807Z,29664.00
2019-03-24T09:40:47.848Z,29152.00
2019-03-24T09:41:47.886Z,28736.00
2019-03-24T09:42:47.928Z,29312.00
2019-03-24T09:43:47.971Z,29504.00
2019-03-24T09:44:48.011Z,29920.00
2019-03-24T09:45:48.047Z,29824.00
2019-03-24T09:46:48.088Z,28928.00
2019-03-24T09:47:48.128Z,29504.00
2019-03-24T09:48:48.169Z,30112.00
2019-03-24T09:49:48.210Z,32064.00
2019-03-24T09:50:48.247Z,35488.00
2019-03-24T09:51:48.287Z,37504.00
2019-03-24T09:52:48.329Z,39168.00
2019-03-24T09:53:48.373Z,38944.00
2019-03-24T09:54:48.409Z,36992.00
2019-03-24T09:55:48.454Z,36160.00
2019-03-24T09:56:48.493Z,36928.00
2019-03-24T09:57:48.930Z,37184.00
2019-03-24T09:58:48.574Z,37856.00
2019-03-24T09:59:48.613Z,37920.00
2019-03-24T10:00:48.652Z,35904.00
2019-03-24T10:01:48.694Z,35136.00
2019-03-24T10:02:48.736Z,34720.00
2019-03-24T10:03:48.777Z,35584.00
2019-03-24T10:04:48.814Z,37600.00
2019-03-24T10:05:48.855Z,39136.00
2019-03-24T10:06:48.895Z,40960.00
2019-03-24T10:07:48.938Z,41824.00
2019-03-24T10:08:48.983Z,41920.00
2019-03-24T10:09:49.020Z,43520.00
2019-03-24T10:10:49.058Z,45376.00
2019-03-24T10:11:49.261Z,45760.00
2019-03-24T10:12:49.138Z,46880.00
2019-03-24T10:13:49.177Z,50784.00
2019-03-24T10:14:49.220Z,54272.00
2019-03-24T10:15:49.257Z,57856.00
2019-03-24T10:16:49.300Z,63584.00
2019-03-24T10:17:49.340Z,65280.00
2019-03-24T10:18:49.382Z,64224.00
2019-03-24T10:19:49.422Z,64480.00
2019-03-24T10:20:49.462Z,66016.00
2019-03-24T10:21:49.505Z,67808.00
2019-03-24T10:22:49.542Z,67680.00
2019-03-24T10:23:49.580Z,68000.00
2019-03-24T10:24:49.629Z,65728.00
2019-03-24T10:25:49.659Z,63712.00
2019-03-24T10:26:49.700Z,64640.00
2019-03-24T10:27:49.740Z,64928.00
2019-03-24T10:28:49.782Z,63360.00
2019-03-24T10:29:49.821Z,60256.00
2019-03-24T10:30:49.860Z,61824.00
2019-03-24T10:31:49.901Z,63264.00
2019-03-24T10:32:49.942Z,58432.00
2019-03-24T10:33:49.979Z,55552.00
2019-03-24T10:34:50.021Z,52832.00
2019-03-24T10:35:50.061Z,51136.00
2019-03-24T10:36:50.101Z,50592.00
2019-03-24T10:37:50.139Z,57216.00
2019-03-24T10:38:50.180Z,65248.00
2019-03-24T10:39:50.220Z,65504.00
2019-03-24T10:40:50.261Z,65792.00
2019-03-24T10:41:50.297Z,68256.00
2019-03-24T10:42:50.340Z,61792.00
2019-03-24T10:43:50.381Z,60288.00
2019-03-24T10:44:50.417Z,60800.00
2019-03-24T10:45:50.456Z,60704.00
2019-03-24T10:46:50.497Z,61472.00
2019-03-24T10:47:50.538Z,64224.00
2019-03-24T10:48:50.576Z,63968.00
2019-03-24T10:49:50.630Z,63296.00
2019-03-24T10:50:50.658Z,61504.00
2019-03-24T10:51:50.701Z,60384.00
2019-03-24T10:52:50.736Z,62784.00
2019-03-24T10:53:50.777Z,64320.00
2019-03-24T10:54:50.818Z,63744.00
2019-03-24T10:55:50.861Z,62176.00
2019-03-24T10:56:50.897Z,57792.00
2019-03-24T10:57:50.938Z,55072.00
2019-03-24T10:58:50.979Z,51008.00
2019-03-24T10:59:51.020Z,39968.00
2019-03-24T11:00:51.057Z,30080.00
2019-03-24T11:01:51.099Z,24928.00
2019-03-24T11:02:51.140Z,22592.00
2019-03-24T11:03:51.181Z,21248.00
2019-03-24T11:04:51.219Z,20288.00
2019-03-24T11:05:51.262Z,19936.00
2019-03-24T11:06:51.303Z,19392.00
2019-03-24T11:07:51.342Z,19360.00
2019-03-24T11:08:51.383Z,19104.00
2019-03-24T11:09:51.423Z,19104.00
2019-03-24T11:10:51.470Z,20032.00
2019-03-24T11:11:51.503Z,20352.00
2019-03-24T11:12:51.553Z,20384.00
2019-03-24T11:13:51.583Z,20864.00
2019-03-24T11:14:51.625Z,20288.00
2019-03-24T11:15:51.660Z,19776.00
2019-03-24T11:16:51.704Z,20384.00
2019-03-24T11:17:51.740Z,19968.00
2019-03-24T11:18:51.780Z,19424.00
2019-03-24T11:19:51.819Z,19552.00
2019-03-24T11:20:51.861Z,19712.00
2019-03-24T11:21:51.898Z,19904.00
2019-03-24T11:22:51.940Z,20096.00
2019-03-24T11:23:51.977Z,20064.00
2019-03-24T11:24:52.020Z,20576.00
2019-03-24T11:25:52.056Z,20672.00
2019-03-24T11:26:52.093Z,20224.00
2019-03-24T11:27:52.136Z,19136.00
2019-03-24T11:28:52.171Z,18112.00
2019-03-24T11:29:52.216Z,17888.00
2019-03-24T11:30:52.251Z,18048.00
2019-03-24T11:31:52.291Z,18048.00
2019-03-24T11:32:52.335Z,18144.00
2019-03-24T11:33:52.368Z,18144.00
2019-03-24T11:34:52.408Z,18272.00
2019-03-24T11:35:52.449Z,18432.00
2019-03-24T11:36:52.484Z,18304.00
2019-03-24T11:37:52.528Z,17728.00
2019-03-24T11:38:52.565Z,17408.00
2019-03-24T11:39:52.605Z,17216.00
2019-03-24T11:40:52.639Z,17216.00
2019-03-24T11:41:52.681Z,16904.00
2019-03-24T11:42:52.720Z,16364.00
2019-03-24T11:43:52.761Z,15800.00
2019-03-24T11:44:52.801Z,15708.00
2019-03-24T11:45:52.839Z,16124.00
2019-03-24T11:46:52.875Z,16244.00
2019-03-24T11:47:52.926Z,16128.00
2019-03-24T11:48:52.956Z,16244.00
2019-03-24T11:49:52.992Z,16208.00
2019-03-24T11:50:53.035Z,16072.00
2019-03-24T11:51:53.077Z,15956.00
2019-03-24T11:52:53.119Z,15660.00
2019-03-24T11:53:53.150Z,15652.00
2019-03-24T11:54:53.190Z,15564.00
2019-03-24T11:55:53.230Z,15524.00
2019-03-24T11:56:53.267Z,15668.00
2019-03-24T11:57:53.312Z,16144.00
2019-03-24T11:58:53.440Z,16192.00
2019-03-24T11:59:53.390Z,15400.00
2019-03-24T12:00:53.427Z,14952.00
2019-03-24T12:01:53.466Z,14748.00
2019-03-24T12:02:53.506Z,14808.00
2019-03-24T12:03:53.548Z,15084.00
2019-03-24T12:04:53.586Z,15144.00
2019-03-24T12:05:53.624Z,15364.00
2019-03-24T12:06:53.665Z,15192.00
2019-03-24T12:07:53.708Z,15320.00
2019-03-24T12:08:53.744Z,15412.00
2019-03-24T12:09:53.783Z,15372.00
2019-03-24T12:10:53.829Z,15508.00
2019-03-24T12:11:53.865Z,15544.00
2019-03-24T12:12:53.903Z,15224.00
2019-03-24T12:13:53.949Z,15004.00
2019-03-24T12:14:53.985Z,15272.00
2019-03-24T12:15:54.024Z,15888.00
2019-03-24T12:16:54.066Z,16252.00